createdAt,value
2019-02-17T00:00:32.309Z,52.70
2019-02-17T00:03:01.035Z,54.60
2019-02-17T00:05:29.737Z,61.80
2019-02-17T00:07:58.303Z,52.20
2019-02-17T00:10:27.159Z,47.13
2019-02-17T00:12:55.851Z,49.53
2019-02-17T00:15:24.472Z,52.40
2019-02-17T00:17:53.447Z,44.77
2019-02-17T00:20:22.098Z,44.67
2019-02-17T00:22:50.680Z,60.67
2019-02-17T00:25:20.537Z,61.77
2019-02-17T00:27:49.955Z,64.72
2019-02-17T00:30:18.610Z,66.60
2019-02-17T00:32:47.274Z,58.67
2019-02-17T00:35:15.961Z,63.80
2019-02-17T00:37:44.508Z,57.53
2019-02-17T00:40:13.253Z,58.50
2019-02-17T00:42:42.011Z,63.60
2019-02-17T00:45:10.899Z,47.93
2019-02-17T00:47:39.615Z,49.90
2019-02-17T00:50:10.455Z,48.87
2019-02-17T00:52:39.146Z,48.87
2019-02-17T00:55:08.303Z,41.43
2019-02-17T00:57:36.918Z,57.27
2019-02-17T01:00:08.600Z,50.70
2019-02-17T01:02:37.308Z,49.23
2019-02-17T01:05:07.329Z,48.17
2019-02-17T01:07:36.039Z,56.50
2019-02-17T01:10:07.525Z,50.63
2019-02-17T01:12:36.379Z,64.10
2019-02-17T01:15:08.639Z,60.05
2019-02-17T01:17:37.316Z,72.60
2019-02-17T01:20:08.590Z,55.50
2019-02-17T01:22:37.365Z,46.90
2019-02-17T01:25:08.845Z,45.23
2019-02-17T01:27:37.525Z,48.77
2019-02-17T01:30:09.308Z,37.60
2019-02-17T01:32:37.928Z,43.97
2019-02-17T01:35:06.663Z,52.93
2019-02-17T01:37:35.326Z,44.93
2019-02-17T01:40:07.892Z,49.80
2019-02-17T01:42:36.756Z,46.17
2019-02-17T01:45:08.737Z,48.67
2019-02-17T01:47:37.424Z,56.17
2019-02-17T01:50:08.276Z,49.60
2019-02-17T01:52:36.968Z,44.20
2019-02-17T01:55:08.059Z,64.87
2019-02-17T01:57:36.670Z,65.63
2019-02-17T02:00:10.919Z,57.83
2019-02-17T02:02:39.594Z,51.33
2019-02-17T02:05:08.289Z,58.50
2019-02-17T02:07:36.959Z,64.63
2019-02-17T02:10:08.999Z,54.27
2019-02-17T02:12:37.774Z,59.27
2019-02-17T02:15:11.964Z,59.57
2019-02-17T02:17:40.736Z,53.70
2019-02-17T02:20:11.690Z,65.27
2019-02-17T02:22:40.243Z,49.27
2019-02-17T02:25:10.064Z,55.10
2019-02-17T02:27:38.761Z,57.77
2019-02-17T02:30:10.351Z,54.77
2019-02-17T02:32:39.101Z,60.52
2019-02-17T02:35:08.211Z,55.53
2019-02-17T02:37:36.909Z,56.53
2019-02-17T02:40:07.318Z,55.87
2019-02-17T02:42:36.100Z,57.98
2019-02-17T02:45:08.239Z,49.93
2019-02-17T02:47:36.869Z,53.23
2019-02-17T02:50:11.346Z,54.43
2019-02-17T02:52:40.038Z,41.33
2019-02-17T02:55:10.039Z,57.63
2019-02-17T02:57:38.693Z,53.97
2019-02-17T03:00:10.455Z,67.00
2019-02-17T03:02:39.174Z,58.07
2019-02-17T03:05:28.487Z,66.97
2019-02-17T03:07:57.169Z,61.10
2019-02-17T03:10:25.854Z,50.03
2019-02-17T03:12:54.398Z,66.17
2019-02-17T03:15:23.117Z,64.13
2019-02-17T03:17:51.848Z,63.97
2019-02-17T03:20:20.540Z,59.97
2019-02-17T03:22:49.178Z,71.10
2019-02-17T03:25:17.815Z,66.00
2019-02-17T03:27:46.467Z,71.60
2019-02-17T03:30:15.178Z,79.47
2019-02-17T03:32:43.925Z,73.37
2019-02-17T03:35:12.661Z,66.83
2019-02-17T03:37:41.400Z,69.57
2019-02-17T03:40:10.301Z,61.43
2019-02-17T03:42:38.926Z,66.40
2019-02-17T03:45:10.491Z,62.53
2019-02-17T03:47:39.250Z,70.50
2019-02-17T03:50:09.380Z,57.50
2019-02-17T03:52:38.059Z,65.83
2019-02-17T03:55:06.778Z,63.10
2019-02-17T03:57:35.530Z,71.20
2019-02-17T04:00:16.373Z,77.20
2019-02-17T04:02:37.851Z,87.67
2019-02-17T04:05:07.358Z,84.10
2019-02-17T04:07:36.035Z,87.13
2019-02-17T04:10:05.884Z,99.92
2019-02-17T04:12:34.568Z,87.00
2019-02-17T04:15:03.358Z,84.77
2019-02-17T04:17:32.078Z,75.87
2019-02-17T04:20:00.696Z,69.47
2019-02-17T04:22:29.432Z,76.77
2019-02-17T04:24:58.365Z,79.10
2019-02-17T04:27:27.072Z,84.47
2019-02-17T04:29:55.775Z,90.63
2019-02-17T04:32:24.510Z,98.67
2019-02-17T04:34:53.238Z,87.03
2019-02-17T04:37:21.934Z,86.02
2019-02-17T04:39:50.667Z,83.33
2019-02-17T04:42:19.372Z,68.07
2019-02-17T04:44:48.016Z,64.47
2019-02-17T04:47:16.675Z,75.53
2019-02-17T04:49:45.280Z,74.73
2019-02-17T04:52:14.047Z,72.60
2019-02-17T04:54:42.706Z,71.28
2019-02-17T04:57:11.486Z,72.63
2019-02-17T04:59:40.162Z,71.60
2019-02-17T05:02:08.892Z,80.70
2019-02-17T05:04:37.530Z,94.73
2019-02-17T05:07:06.438Z,102.35
2019-02-17T05:09:35.070Z,88.63
2019-02-17T05:12:03.744Z,75.23
2019-02-17T05:14:32.508Z,87.00
2019-02-17T05:17:01.220Z,83.73
2019-02-17T05:19:29.881Z,85.53
2019-02-17T05:21:58.502Z,70.60
2019-02-17T05:24:27.242Z,79.40
2019-02-17T05:26:55.980Z,87.80
2019-02-17T05:29:24.639Z,90.47
2019-02-17T05:31:53.279Z,74.57
2019-02-17T05:34:21.970Z,72.20
2019-02-17T05:36:50.672Z,77.77
2019-02-17T05:39:19.411Z,83.27
2019-02-17T05:41:48.137Z,73.47
2019-02-17T05:44:16.689Z,73.60
2019-02-17T05:46:45.371Z,67.20
2019-02-17T05:49:13.988Z,73.00
2019-02-17T05:51:42.559Z,72.00
2019-02-17T05:54:11.263Z,73.67
2019-02-17T05:56:39.925Z,71.57
2019-02-17T05:59:08.659Z,85.57
2019-02-17T06:01:37.360Z,84.93
2019-02-17T06:04:06.578Z,73.62
2019-02-17T06:06:35.224Z,69.73
2019-02-17T06:09:04.972Z,80.37
2019-02-17T06:11:33.627Z,64.77
2019-02-17T06:14:02.448Z,83.40
2019-02-17T06:16:31.204Z,68.47
2019-02-17T06:18:59.941Z,71.67
2019-02-17T06:21:28.598Z,59.67
2019-02-17T06:23:57.199Z,63.20
2019-02-17T06:26:25.767Z,76.73
2019-02-17T06:28:54.567Z,62.40
2019-02-17T06:31:23.284Z,68.90
2019-02-17T06:33:52.251Z,54.73
2019-02-17T06:36:21.305Z,72.37
2019-02-17T06:38:50.024Z,48.53
2019-02-17T06:41:18.684Z,70.32
2019-02-17T06:43:47.374Z,59.30
2019-02-17T06:46:17.708Z,79.72
2019-02-17T06:48:46.339Z,84.40
2019-02-17T06:51:15.020Z,83.65
2019-02-17T06:53:43.749Z,67.33
2019-02-17T06:56:14.086Z,75.57
2019-02-17T06:58:42.768Z,74.13
2019-02-17T07:01:11.461Z,69.82
2019-02-17T07:03:40.062Z,90.23
2019-02-17T07:06:10.422Z,78.67
2019-02-17T07:08:39.368Z,71.05
2019-02-17T07:11:08.116Z,84.27
2019-02-17T07:13:36.819Z,94.93
2019-02-17T07:16:05.661Z,89.93
2019-02-17T07:18:34.317Z,95.23
2019-02-17T07:21:03.896Z,116.87
2019-02-17T07:23:32.730Z,113.07
2019-02-17T07:26:01.479Z,113.80
2019-02-17T07:28:30.156Z,113.67
2019-02-17T07:30:59.556Z,115.20
2019-02-17T07:33:29.141Z,101.60
2019-02-17T07:35:58.109Z,110.08
2019-02-17T07:38:26.650Z,117.40
2019-02-17T07:40:55.424Z,109.10
2019-02-17T07:43:24.671Z,119.53
2019-02-17T07:45:56.509Z,104.20
2019-02-17T07:48:25.441Z,96.20
2019-02-17T07:51:06.543Z,84.23
2019-02-17T07:53:36.177Z,59.87
2019-02-17T07:56:05.020Z,49.53
2019-02-17T07:58:33.843Z,53.07
2019-02-17T08:01:04.483Z,41.57
2019-02-17T08:03:33.283Z,41.67
2019-02-17T08:06:02.184Z,39.67
2019-02-17T08:08:30.870Z,47.70
2019-02-17T08:11:03.939Z,39.23
2019-02-17T08:13:30.014Z,45.37
2019-02-17T08:15:58.891Z,39.60
2019-02-17T08:18:29.406Z,34.17
2019-02-17T08:20:58.359Z,37.83
2019-02-17T08:23:26.994Z,39.90
2019-02-17T08:25:55.647Z,45.70
2019-02-17T08:28:24.393Z,41.33
2019-02-17T08:30:57.300Z,38.60
2019-02-17T08:33:26.039Z,41.40
2019-02-17T08:35:54.703Z,41.27
2019-02-17T08:38:23.445Z,39.87
2019-02-17T08:40:52.099Z,43.73
2019-02-17T08:43:21.169Z,45.07
2019-02-17T08:45:50.019Z,38.60
2019-02-17T08:48:18.822Z,37.47
2019-02-17T08:50:48.017Z,42.33
2019-02-17T08:53:17.073Z,37.87
2019-02-17T08:55:46.091Z,45.90
2019-02-17T08:58:14.820Z,39.27
2019-02-17T09:00:43.644Z,43.33
2019-02-17T09:03:12.490Z,35.13
2019-02-17T09:05:44.198Z,39.10
2019-02-17T09:08:12.084Z,37.42
2019-02-17T09:10:41.115Z,37.50
2019-02-17T09:13:10.011Z,34.50
2019-02-17T09:15:38.703Z,31.20
2019-02-17T09:18:07.419Z,31.57
2019-02-17T09:20:37.370Z,36.20
2019-02-17T09:23:06.498Z,32.33
2019-02-17T09:25:35.155Z,37.97
2019-02-17T09:28:03.974Z,29.50
2019-02-17T09:30:33.586Z,32.93
2019-02-17T09:33:02.320Z,30.57
2019-02-17T09:35:32.789Z,26.17
2019-02-17T09:38:01.697Z,32.33
2019-02-17T09:40:31.633Z,27.37
2019-02-17T09:43:01.371Z,30.57
2019-02-17T09:45:31.752Z,32.13
2019-02-17T09:48:00.455Z,35.87
2019-02-17T09:50:29.180Z,30.40
2019-02-17T09:52:57.907Z,34.67
2019-02-17T09:55:26.681Z,27.80
2019-02-17T09:57:55.352Z,27.27
2019-02-17T10:00:24.057Z,32.13
2019-02-17T10:02:52.705Z,30.93
2019-02-17T10:05:21.468Z,29.65
2019-02-17T10:07:51.278Z,27.30
2019-02-17T10:10:21.251Z,30.60
2019-02-17T10:12:50.003Z,28.43
2019-02-17T10:15:18.722Z,32.42
2019-02-17T10:17:47.470Z,29.67
2019-02-17T10:20:17.280Z,26.10
2019-02-17T10:22:45.973Z,34.13
2019-02-17T10:25:14.713Z,30.60
2019-02-17T10:27:43.419Z,29.37
2019-02-17T10:30:14.897Z,32.57
2019-02-17T10:32:43.655Z,34.53
2019-02-17T10:35:12.395Z,34.38
2019-02-17T10:37:41.078Z,32.23
2019-02-17T10:40:12.707Z,36.43
2019-02-17T10:42:41.937Z,28.43
2019-02-17T10:45:12.587Z,30.77
2019-02-17T10:47:41.414Z,30.47
2019-02-17T10:50:12.776Z,28.37
2019-02-17T10:52:49.820Z,28.73
2019-02-17T10:55:18.663Z,30.27
2019-02-17T10:57:47.312Z,29.03
2019-02-17T11:00:20.226Z,27.37
2019-02-17T11:02:49.880Z,31.83
2019-02-17T11:05:18.516Z,34.40
2019-02-17T11:07:47.280Z,27.77
2019-02-17T11:10:15.926Z,26.87
2019-02-17T11:12:44.666Z,26.37
2019-02-17T11:15:19.028Z,27.30
2019-02-17T11:17:59.365Z,31.47
2019-02-17T11:20:28.126Z,26.07
2019-02-17T11:22:56.958Z,31.87
2019-02-17T11:25:27.936Z,28.77
2019-02-17T11:27:57.350Z,26.10
2019-02-17T11:30:25.979Z,29.60
2019-02-17T11:32:58.509Z,24.13
2019-02-17T11:35:29.666Z,28.87
2019-02-17T11:37:57.797Z,26.17
2019-02-17T11:40:26.537Z,30.63
2019-02-17T11:42:55.379Z,28.10
2019-02-17T11:45:24.172Z,30.30
2019-02-17T11:47:53.665Z,29.60
2019-02-17T11:50:30.924Z,45.33
2019-02-17T11:52:59.669Z,32.27
2019-02-17T11:55:28.305Z,31.30
2019-02-17T11:57:57.131Z,29.20
2019-02-17T12:00:26.057Z,33.83
2019-02-17T12:02:54.778Z,27.00
2019-02-17T12:05:23.545Z,31.50
2019-02-17T12:07:52.434Z,29.67
2019-02-17T12:10:21.074Z,27.60
2019-02-17T12:12:49.820Z,29.50
2019-02-17T12:15:18.512Z,31.90
2019-02-17T12:17:47.173Z,35.03
2019-02-17T12:20:38.247Z,28.83
2019-02-17T12:23:09.786Z,29.52
2019-02-17T12:25:43.121Z,26.43
2019-02-17T12:28:13.434Z,28.95
2019-02-17T12:30:43.883Z,27.23
2019-02-17T12:33:19.224Z,30.30
2019-02-17T12:35:43.028Z,29.40
2019-02-17T12:38:11.854Z,31.50
2019-02-17T12:40:40.521Z,30.77
2019-02-17T12:43:09.226Z,28.60
2019-02-17T12:45:38.003Z,28.57
2019-02-17T12:48:06.762Z,29.43
2019-02-17T12:50:35.464Z,30.83
2019-02-17T12:53:04.900Z,28.53
2019-02-17T12:55:33.621Z,32.70
2019-02-17T12:58:02.962Z,32.60
2019-02-17T13:00:31.717Z,26.43
2019-02-17T13:03:00.424Z,30.70
2019-02-17T13:05:29.341Z,33.77
2019-02-17T13:07:58.136Z,30.17
2019-02-17T13:10:26.892Z,30.53
2019-02-17T13:12:55.746Z,26.97
2019-02-17T13:15:24.833Z,32.70
2019-02-17T13:17:53.559Z,27.90
2019-02-17T13:20:22.543Z,31.62
2019-02-17T13:22:51.114Z,25.90
2019-02-17T13:25:19.898Z,25.10
2019-02-17T13:27:49.033Z,32.90
2019-02-17T13:30:28.308Z,30.48
2019-02-17T13:32:57.136Z,29.00
2019-02-17T13:35:27.065Z,30.17
2019-02-17T13:37:55.620Z,27.00
2019-02-17T13:40:24.378Z,26.70
2019-02-17T13:42:53.188Z,30.50
2019-02-17T13:45:22.013Z,28.95
2019-02-17T13:47:50.948Z,25.50
2019-02-17T13:50:20.044Z,29.17
2019-02-17T13:52:48.642Z,30.72
2019-02-17T13:55:17.568Z,27.93
2019-02-17T13:57:46.664Z,22.93
2019-02-17T14:00:19.319Z,27.50
2019-02-17T14:02:48.086Z,29.60
2019-02-17T14:05:16.817Z,28.17
2019-02-17T14:07:45.457Z,30.27
2019-02-17T14:10:19.429Z,30.40
2019-02-17T14:12:48.273Z,31.93
2019-02-17T14:15:21.732Z,29.43
2019-02-17T14:17:50.461Z,29.57
2019-02-17T14:20:19.921Z,27.80
2019-02-17T14:22:48.702Z,30.90
2019-02-17T14:25:17.722Z,31.60
2019-02-17T14:27:46.539Z,22.33
2019-02-17T14:30:17.631Z,26.77
2019-02-17T14:32:46.282Z,23.43
2019-02-17T14:35:20.733Z,20.75
2019-02-17T14:37:49.539Z,23.47
2019-02-17T14:40:18.088Z,25.20
2019-02-17T14:42:46.839Z,31.67
2019-02-17T14:45:29.308Z,25.63
2019-02-17T14:48:11.522Z,29.33
2019-02-17T14:50:56.742Z,30.33
2019-02-17T14:53:39.627Z,27.40
2019-02-17T14:56:24.645Z,23.53
2019-02-17T14:59:08.836Z,19.77
2019-02-17T15:01:53.844Z,23.90
2019-02-17T15:04:38.127Z,21.27
2019-02-17T15:07:26.687Z,22.53
2019-02-17T15:10:10.563Z,23.53
2019-02-17T15:12:56.349Z,29.30
2019-02-17T15:15:44.972Z,20.80
2019-02-17T15:18:30.724Z,23.33
2019-02-17T15:21:23.698Z,23.77
2019-02-17T15:24:08.141Z,21.33
2019-02-17T15:26:52.857Z,19.50
2019-02-17T15:29:37.800Z,23.23
2019-02-17T15:32:19.963Z,25.23
2019-02-17T15:35:11.230Z,22.50
2019-02-17T15:37:54.261Z,19.67
2019-02-17T15:40:40.963Z,19.10
2019-02-17T15:43:24.290Z,23.70
2019-02-17T15:46:09.230Z,20.37
2019-02-17T15:48:52.765Z,19.07
2019-02-17T15:51:27.006Z,19.70
2019-02-17T15:54:02.338Z,18.40
2019-02-17T15:56:31.069Z,22.40
2019-02-17T15:59:06.122Z,23.93
2019-02-17T16:01:34.911Z,21.33
2019-02-17T16:04:08.425Z,23.33
2019-02-17T16:06:37.240Z,24.50
2019-02-17T16:09:07.535Z,20.40
2019-02-17T16:11:36.803Z,21.80
2019-02-17T16:14:05.643Z,22.53
2019-02-17T16:16:34.354Z,22.47
2019-02-17T16:19:03.168Z,20.13
2019-02-17T16:21:31.885Z,22.77
2019-02-17T16:24:00.620Z,25.03
2019-02-17T16:26:29.331Z,23.67
2019-02-17T16:28:58.015Z,20.70
2019-02-17T16:31:26.668Z,24.23
2019-02-17T16:33:55.970Z,28.03
2019-02-17T16:36:24.793Z,19.73
2019-02-17T16:38:53.513Z,22.73
2019-02-17T16:41:22.254Z,23.07
2019-02-17T16:43:51.038Z,24.27
2019-02-17T16:46:19.743Z,23.32
2019-02-17T16:48:48.496Z,23.30
2019-02-17T16:51:17.254Z,23.77
2019-02-17T16:53:46.096Z,25.53
2019-02-17T16:56:14.810Z,23.23
2019-02-17T16:58:43.446Z,25.10
2019-02-17T17:01:12.257Z,24.70
2019-02-17T17:03:41.284Z,24.70
2019-02-17T17:06:10.122Z,22.03
2019-02-17T17:08:39.115Z,21.60
2019-02-17T17:11:07.881Z,24.33
2019-02-17T17:13:36.638Z,25.97
2019-02-17T17:16:05.321Z,22.10
2019-02-17T17:18:34.016Z,24.50
2019-02-17T17:21:03.544Z,27.87
2019-02-17T17:23:32.307Z,23.93
2019-02-17T17:26:01.045Z,31.30
2019-02-17T17:28:29.750Z,27.07
2019-02-17T17:30:58.655Z,30.30
2019-02-17T17:33:27.260Z,27.90
2019-02-17T17:35:55.971Z,28.67
2019-02-17T17:38:24.725Z,31.27
2019-02-17T17:40:53.414Z,31.33
2019-02-17T17:43:22.176Z,31.33
2019-02-17T17:45:50.919Z,33.10
2019-02-17T17:48:19.849Z,33.43
2019-02-17T17:50:48.571Z,29.07
2019-02-17T17:53:17.320Z,30.77
2019-02-17T17:55:46.076Z,43.43
2019-02-17T17:58:14.893Z,33.93
2019-02-17T18:00:43.761Z,31.53
2019-02-17T18:03:12.493Z,27.27
2019-02-17T18:05:41.280Z,31.95
2019-02-17T18:08:10.037Z,34.43
2019-02-17T18:10:43.282Z,31.60
2019-02-17T18:13:12.014Z,33.83
2019-02-17T18:15:41.527Z,34.20
2019-02-17T18:18:10.415Z,33.23
2019-02-17T18:20:39.226Z,32.47
2019-02-17T18:23:11.412Z,32.00
2019-02-17T18:25:40.510Z,34.57
2019-02-17T18:28:09.284Z,35.70
2019-02-17T18:30:38.040Z,34.50
2019-02-17T18:33:06.799Z,26.47
2019-02-17T18:35:35.425Z,38.10
2019-02-17T18:38:06.313Z,33.75
2019-02-17T18:40:44.659Z,31.97
2019-02-17T18:43:07.961Z,37.57
2019-02-17T18:45:37.074Z,41.50
2019-02-17T18:48:05.765Z,29.83
2019-02-17T18:50:35.540Z,36.90
2019-02-17T18:53:06.207Z,29.40
2019-02-17T18:55:35.154Z,30.60
2019-02-17T18:58:03.966Z,34.90
2019-02-17T19:00:33.063Z,32.57
2019-02-17T19:03:01.762Z,29.43
2019-02-17T19:05:32.299Z,33.77
2019-02-17T19:08:00.859Z,37.30
2019-02-17T19:10:29.692Z,35.60
2019-02-17T19:12:58.412Z,34.70
2019-02-17T19:15:27.120Z,34.47
2019-02-17T19:17:55.882Z,36.23
2019-02-17T19:20:36.337Z,36.70
2019-02-17T19:23:05.309Z,40.90
2019-02-17T19:25:34.012Z,37.07
2019-02-17T19:28:03.732Z,30.10
2019-02-17T19:30:32.894Z,35.60
2019-02-17T19:33:01.635Z,36.33
2019-02-17T19:35:30.848Z,33.43
2019-02-17T19:37:59.684Z,36.17
2019-02-17T19:40:28.430Z,31.33
2019-02-17T19:42:57.623Z,38.90
2019-02-17T19:45:26.604Z,43.07
2019-02-17T19:47:55.396Z,42.60
2019-02-17T19:50:24.285Z,43.27
2019-02-17T19:52:53.125Z,44.03
2019-02-17T19:55:21.914Z,39.20
2019-02-17T19:57:50.777Z,36.27
2019-02-17T20:00:22.115Z,47.27
2019-02-17T20:03:07.681Z,40.53
2019-02-17T20:05:38.001Z,41.53
2019-02-17T20:08:06.852Z,43.83
2019-02-17T20:10:35.441Z,35.63
2019-02-17T20:13:05.247Z,38.17
2019-02-17T20:15:35.196Z,41.30
2019-02-17T20:18:03.877Z,41.10
2019-02-17T20:20:32.568Z,53.43
2019-02-17T20:23:01.295Z,40.90
2019-02-17T20:25:29.999Z,48.33
2019-02-17T20:27:58.719Z,37.77
2019-02-17T20:30:27.365Z,34.20
2019-02-17T20:32:56.094Z,38.97
2019-02-17T20:35:24.887Z,47.80
2019-02-17T20:37:53.501Z,45.77
2019-02-17T20:40:22.244Z,49.30
2019-02-17T20:42:50.956Z,49.50
2019-02-17T20:45:19.725Z,46.20
2019-02-17T20:47:48.418Z,49.30
2019-02-17T20:50:19.247Z,43.90
2019-02-17T20:52:47.978Z,45.77
2019-02-17T20:55:16.689Z,42.10
2019-02-17T20:57:45.392Z,37.50
2019-02-17T21:00:22.565Z,49.33
2019-02-17T21:03:06.327Z,48.40
2019-02-17T21:05:36.704Z,44.87
2019-02-17T21:08:21.023Z,41.20
2019-02-17T21:10:52.205Z,51.70
2019-02-17T21:13:24.928Z,43.60
2019-02-17T21:15:53.773Z,53.70
2019-02-17T21:18:28.934Z,41.40
2019-02-17T21:21:12.434Z,47.10
2019-02-17T21:23:45.230Z,49.63
2019-02-17T21:26:14.248Z,44.88
2019-02-17T21:28:46.175Z,41.73
2019-02-17T21:31:17.503Z,42.73
2019-02-17T21:33:55.652Z,46.67
2019-02-17T21:36:25.060Z,35.23
2019-02-17T21:38:56.012Z,35.03
2019-02-17T21:41:28.300Z,34.73
2019-02-17T21:43:58.896Z,36.17
2019-02-17T21:46:27.701Z,43.20
2019-02-17T21:48:56.601Z,34.00
2019-02-17T21:51:26.787Z,35.53
2019-02-17T21:53:55.535Z,34.90
2019-02-17T21:56:24.299Z,35.40
2019-02-17T21:58:52.951Z,33.03
2019-02-17T22:01:21.770Z,29.70
2019-02-17T22:03:50.478Z,34.07
2019-02-17T22:06:19.134Z,26.40
2019-02-17T22:08:47.925Z,30.27
2019-02-17T22:11:17.549Z,28.50
2019-02-17T22:13:46.355Z,26.23
2019-02-17T22:16:15.085Z,27.35
2019-02-17T22:18:43.881Z,32.88
2019-02-17T22:21:12.701Z,31.37
2019-02-17T22:23:41.425Z,29.33
2019-02-17T22:26:10.295Z,24.73
2019-02-17T22:28:39.080Z,28.03
2019-02-17T22:31:07.830Z,25.90
2019-02-17T22:33:36.493Z,28.43
2019-02-17T22:36:05.266Z,27.60
2019-02-17T22:38:34.011Z,25.10
2019-02-17T22:41:03.120Z,18.27
2019-02-17T22:43:33.234Z,20.97
2019-02-17T22:46:02.459Z,26.93
2019-02-17T22:48:31.217Z,21.33
2019-02-17T22:50:59.921Z,23.87
2019-02-17T22:53:28.647Z,22.17
2019-02-17T22:55:57.331Z,20.00
2019-02-17T22:58:25.968Z,22.17
2019-02-17T23:00:59.246Z,24.00
2019-02-17T23:03:30.940Z,20.10
2019-02-17T23:05:59.934Z,19.67
2019-02-17T23:08:28.636Z,18.97
2019-02-17T23:10:57.415Z,22.70
2019-02-17T23:13:26.545Z,21.03
2019-02-17T23:15:55.164Z,19.33
2019-02-17T23:18:23.890Z,18.20
2019-02-17T23:20:52.617Z,14.60
2019-02-17T23:23:21.323Z,15.73
2019-02-17T23:25:49.996Z,17.50
2019-02-17T23:28:18.624Z,23.10
2019-02-17T23:30:47.331Z,21.53
2019-02-17T23:33:16.070Z,13.45
2019-02-17T23:35:44.848Z,16.60
2019-02-17T23:38:13.478Z,16.50
2019-02-17T23:40:42.106Z,16.20
2019-02-17T23:43:10.767Z,15.97
2019-02-17T23:45:39.670Z,14.87
2019-02-17T23:48:08.421Z,15.37
2019-02-17T23:50:37.066Z,15.00
2019-02-17T23:53:05.778Z,17.93
2019-02-17T23:55:34.390Z,14.50
2019-02-17T23:58:03.087Z,11.00
